Time;durP1;ratioP1;P1;durP2;ratioP2;P2;SDS_P1;SDS_P2;PMS_P1;PMS_P2;Temp;Humidity;BMP_temperature;BMP_pressure;BME280_temperature;BME280_humidity;BME280_pressure;Samples;Min_cycle;Max_cycle;Signal;HPM_P1;HPM_P2
2021/12/09 00:01:39;;;;;;;19.50;13.80;;;3.20;99.90;;;;;;5068135;28;20188;-49
2021/12/09 00:04:10;;;;;;;23.35;15.48;;;3.10;99.90;;;;;;5068139;28;20201;-57
2021/12/09 00:06:36;;;;;;;17.92;13.75;;;3.20;99.90;;;;;;5055628;28;20583;-51
2021/12/09 00:09:12;;;;;;;18.75;14.52;;;3.20;99.90;;;;;;5064767;28;20176;-52
2021/12/09 00:11:46;;;;;;;22.00;14.35;;;3.20;99.90;;;;;;5074628;28;20228;-51
2021/12/09 00:14:19;;;;;;;20.63;13.27;;;3.20;99.90;;;;;;5067964;28;20177;-49
2021/12/09 00:16:45;;;;;;;24.45;12.98;;;3.20;99.90;;;;;;5068201;28;20524;-52
2021/12/09 00:19:11;;;;;;;20.40;14.20;;;3.20;99.90;;;;;;5081909;28;20196;-51
2021/12/09 00:21:37;;;;;;;19.23;13.90;;;3.20;99.90;;;;;;5076197;28;20932;-49
2021/12/09 00:24:03;;;;;;;20.60;14.00;;;3.20;99.90;;;;;;5086939;28;20962;-50
2021/12/09 00:26:29;;;;;;;19.77;12.80;;;3.20;99.90;;;;;;5070621;28;20202;-52
2021/12/09 00:28:55;;;;;;;22.70;14.53;;;3.20;99.90;;;;;;5070321;28;20699;-50
2021/12/09 00:31:20;;;;;;;21.23;14.65;;;3.20;99.90;;;;;;5072580;28;20256;-54
2021/12/09 00:33:47;;;;;;;19.80;14.17;;;3.20;99.90;;;;;;5068144;28;20284;-51
2021/12/09 00:36:22;;;;;;;20.67;13.35;;;3.20;99.90;;;;;;5078138;28;20306;-48
2021/12/09 00:38:47;;;;;;;23.10;14.52;;;3.20;99.90;;;;;;5071084;28;20181;-50
2021/12/09 00:41:14;;;;;;;21.40;14.23;;;3.20;99.90;;;;;;5067127;28;20904;-49
2021/12/09 00:43:42;;;;;;;21.88;14.00;;;3.20;99.90;;;;;;5068172;28;20204;-50
2021/12/09 00:46:08;;;;;;;20.00;14.27;;;3.20;99.90;;;;;;5067249;28;20188;-55
2021/12/09 00:48:34;;;;;;;18.70;13.32;;;3.20;99.90;;;;;;5066946;28;20264;-51
2021/12/09 00:51:01;;;;;;;20.85;13.55;;;3.20;99.90;;;;;;5068407;28;20554;-52
2021/12/09 00:53:27;;;;;;;20.67;14.63;;;3.30;99.90;;;;;;5067896;28;20280;-49
2021/12/09 00:55:53;;;;;;;20.87;13.40;;;3.20;99.90;;;;;;5067088;28;20252;-52
2021/12/09 00:58:19;;;;;;;21.10;13.93;;;3.20;99.90;;;;;;5065025;28;20209;-51
2021/12/09 01:00:46;;;;;;;19.67;14.85;;;3.20;99.90;;;;;;5068161;28;21187;-52
2021/12/09 01:03:13;;;;;;;19.50;13.93;;;3.20;99.90;;;;;;5068325;28;20913;-47
2021/12/09 01:05:38;;;;;;;18.70;14.57;;;3.30;99.90;;;;;;5066418;28;20315;-49
2021/12/09 01:08:05;;;;;;;18.50;14.13;;;3.30;99.90;;;;;;5058928;28;20946;-52
2021/12/09 01:10:31;;;;;;;21.00;14.02;;;3.30;99.90;;;;;;5066271;28;20312;-54
2021/12/09 01:12:57;;;;;;;16.40;12.60;;;3.30;99.90;;;;;;5068726;28;20243;-53
2021/12/09 01:15:23;;;;;;;19.50;13.70;;;3.20;99.90;;;;;;5055889;28;20174;-50
2021/12/09 01:17:49;;;;;;;24.07;15.10;;;3.20;99.90;;;;;;5077686;28;20434;-51
2021/12/09 01:20:18;;;;;;;26.05;16.50;;;3.20;99.90;;;;;;5076243;28;20440;-51
2021/12/09 01:22:46;;;;;;;28.35;18.17;;;3.30;99.90;;;;;;5077752;28;20707;-52
2021/12/09 01:25:15;;;;;;;24.77;16.85;;;3.20;99.90;;;;;;5053452;28;20193;-51
2021/12/09 01:27:43;;;;;;;27.20;17.73;;;3.20;99.90;;;;;;5070924;28;20221;-49
2021/12/09 01:30:15;;;;;;;26.92;18.02;;;3.20;99.90;;;;;;5075006;28;20182;-49
2021/12/09 01:32:47;;;;;;;28.15;17.65;;;3.10;99.90;;;;;;5066778;28;20177;-52
2021/12/09 01:35:13;;;;;;;29.73;18.23;;;3.10;99.90;;;;;;5070003;28;20636;-54
2021/12/09 01:37:39;;;;;;;31.27;19.87;;;3.10;99.90;;;;;;5072435;28;20194;-49
2021/12/09 01:40:07;;;;;;;29.15;18.95;;;3.10;99.90;;;;;;5073921;28;20501;-50
2021/12/09 01:42:32;;;;;;;31.60;19.48;;;3.00;99.90;;;;;;5070853;28;20177;-52
2021/12/09 01:44:58;;;;;;;31.87;19.73;;;3.00;99.90;;;;;;5082592;28;20192;-51
2021/12/09 01:47:23;;;;;;;30.90;19.93;;;3.00;99.90;;;;;;5075798;28;20212;-51
2021/12/09 01:49:49;;;;;;;31.30;19.60;;;3.00;99.90;;;;;;5069768;28;20239;-53
2021/12/09 01:52:15;;;;;;;29.70;18.73;;;3.00;99.90;;;;;;5079837;28;20174;-51
2021/12/09 01:54:41;;;;;;;33.42;20.52;;;3.00;99.90;;;;;;5075962;28;20181;-50
2021/12/09 01:57:07;;;;;;;31.80;19.47;;;3.00;99.90;;;;;;5070269;28;20227;-51
2021/12/09 01:59:33;;;;;;;32.60;19.87;;;2.90;99.90;;;;;;5070322;28;20189;-50
2021/12/09 02:02:00;;;;;;;28.42;19.92;;;3.00;99.90;;;;;;5073073;28;20446;-52
2021/12/09 02:04:25;;;;;;;30.90;20.02;;;3.00;99.90;;;;;;5069969;28;21097;-49
2021/12/09 02:06:52;;;;;;;32.10;19.40;;;3.10;99.90;;;;;;5079304;28;20262;-53
2021/12/09 02:09:18;;;;;;;34.65;21.45;;;3.10;99.90;;;;;;5072060;28;20200;-58
2021/12/09 02:11:44;;;;;;;34.80;20.63;;;3.00;99.90;;;;;;5062460;28;20177;-53
2021/12/09 02:14:10;;;;;;;35.37;21.73;;;3.10;99.90;;;;;;5070897;28;20872;-49
2021/12/09 02:16:36;;;;;;;35.28;23.20;;;3.00;99.90;;;;;;5078795;28;20211;-58
2021/12/09 02:19:03;;;;;;;33.13;20.65;;;2.90;99.90;;;;;;5069005;28;20177;-51
2021/12/09 02:21:31;;;;;;;37.13;21.38;;;2.90;99.90;;;;;;5078285;28;20236;-51
2021/12/09 02:24:01;;;;;;;38.67;22.35;;;2.80;99.90;;;;;;5085985;28;20232;-57
2021/12/09 02:26:36;;;;;;;33.20;20.77;;;2.80;99.90;;;;;;5068059;28;20355;-53
2021/12/09 02:29:03;;;;;;;35.80;21.90;;;2.90;99.90;;;;;;5050975;28;20297;-51
2021/12/09 02:31:29;;;;;;;34.80;21.20;;;2.90;99.90;;;;;;5085783;28;20246;-51
2021/12/09 02:33:56;;;;;;;35.58;21.38;;;2.80;99.90;;;;;;5071530;28;20181;-51
2021/12/09 02:36:22;;;;;;;38.58;21.92;;;2.80;99.90;;;;;;5069332;28;20200;-50
2021/12/09 02:38:50;;;;;;;35.97;21.80;;;2.80;99.90;;;;;;5071841;28;20181;-51
2021/12/09 02:41:19;;;;;;;38.15;21.85;;;2.80;99.90;;;;;;5074857;28;20427;-50
2021/12/09 02:43:51;;;;;;;38.30;23.50;;;2.80;99.90;;;;;;5066233;28;20221;-54
2021/12/09 02:46:17;;;;;;;38.13;21.10;;;2.80;99.90;;;;;;5073817;28;20676;-49
2021/12/09 02:48:44;;;;;;;39.63;21.85;;;2.70;99.90;;;;;;5080277;28;20260;-51
2021/12/09 02:51:10;;;;;;;40.28;22.10;;;2.70;99.90;;;;;;5072360;28;20185;-49
2021/12/09 02:53:35;;;;;;;34.40;23.23;;;2.80;99.90;;;;;;5085923;28;20239;-47
2021/12/09 02:56:02;;;;;;;40.70;22.30;;;2.80;99.90;;;;;;5077466;28;20189;-51
2021/12/09 02:58:28;;;;;;;41.15;23.42;;;2.70;99.90;;;;;;5070415;28;20185;-48
2021/12/09 03:01:00;;;;;;;40.03;23.00;;;2.70;99.90;;;;;;5068912;28;20218;-53
2021/12/09 03:03:27;;;;;;;40.45;22.75;;;2.70;99.90;;;;;;5071214;28;20480;-52
2021/12/09 03:05:55;;;;;;;34.75;21.58;;;2.70;99.90;;;;;;5076005;28;20185;-52
2021/12/09 03:08:33;;;;;;;36.92;22.13;;;2.70;99.90;;;;;;5051389;28;20288;-51
2021/12/09 03:11:10;;;;;;;36.05;23.23;;;2.70;99.90;;;;;;5071744;28;20300;-56
2021/12/09 03:13:38;;;;;;;37.38;22.70;;;2.70;99.90;;;;;;5071188;28;20187;-57
2021/12/09 03:16:04;;;;;;;37.40;22.88;;;2.60;99.90;;;;;;5081247;28;20234;-49
2021/12/09 03:18:31;;;;;;;36.65;22.33;;;2.60;99.90;;;;;;5074463;28;20181;-49
2021/12/09 03:20:56;;;;;;;37.63;22.27;;;2.60;99.90;;;;;;5074584;28;20169;-56
2021/12/09 03:23:23;;;;;;;35.87;22.20;;;2.60;99.90;;;;;;5071545;28;20225;-51
2021/12/09 03:25:49;;;;;;;39.80;23.77;;;2.60;99.90;;;;;;5080621;28;20185;-49
2021/12/09 03:28:16;;;;;;;34.70;23.02;;;2.60;99.90;;;;;;5067027;28;20635;-53
2021/12/09 03:30:41;;;;;;;37.65;21.58;;;2.60;99.90;;;;;;5081922;28;20204;-55
2021/12/09 03:33:07;;;;;;;39.40;21.70;;;2.60;99.90;;;;;;5072470;28;20588;-58
2021/12/09 03:35:33;;;;;;;35.10;22.40;;;2.60;99.90;;;;;;5069465;28;20659;-54
2021/12/09 03:38:00;;;;;;;43.77;23.90;;;2.60;99.90;;;;;;5070193;28;20200;-48
2021/12/09 03:40:25;;;;;;;34.50;21.52;;;2.60;99.90;;;;;;5068547;28;21175;-51
2021/12/09 03:42:51;;;;;;;36.40;22.07;;;2.60;99.90;;;;;;5075329;28;20190;-52
2021/12/09 03:45:17;;;;;;;39.23;23.40;;;2.60;99.90;;;;;;5075376;28;20201;-54
2021/12/09 03:47:43;;;;;;;34.90;22.33;;;2.60;99.90;;;;;;5069121;28;20478;-50
2021/12/09 03:50:12;;;;;;;39.70;24.73;;;2.60;99.90;;;;;;5074035;28;20641;-52
2021/12/09 03:52:39;;;;;;;35.65;23.00;;;2.60;99.90;;;;;;5075819;28;20188;-50
2021/12/09 03:55:07;;;;;;;37.75;21.90;;;2.60;99.90;;;;;;5078209;28;20177;-53
2021/12/09 03:57:33;;;;;;;34.28;21.70;;;2.60;99.90;;;;;;5069435;28;20200;-49
2021/12/09 03:59:59;;;;;;;41.20;23.03;;;2.60;99.90;;;;;;5071501;28;20189;-52
2021/12/09 04:02:24;;;;;;;34.03;21.03;;;2.70;99.90;;;;;;5066244;28;20446;-51
2021/12/09 04:04:50;;;;;;;43.03;23.70;;;2.70;99.90;;;;;;5079577;28;20220;-48
2021/12/09 04:07:16;;;;;;;35.65;21.90;;;2.60;99.90;;;;;;5069513;28;20237;-50
2021/12/09 04:09:42;;;;;;;36.07;21.30;;;2.70;99.90;;;;;;5071788;28;20218;-53
2021/12/09 04:12:09;;;;;;;34.80;20.67;;;2.60;99.90;;;;;;5068058;28;20456;-52
2021/12/09 04:14:36;;;;;;;34.55;22.40;;;2.70;99.90;;;;;;5068077;28;20633;-53
2021/12/09 04:17:02;;;;;;;37.80;22.25;;;2.60;99.90;;;;;;5050169;28;20217;-54
2021/12/09 04:19:27;;;;;;;34.90;20.30;;;2.60;99.90;;;;;;5067275;28;20190;-50
2021/12/09 04:21:53;;;;;;;36.80;23.00;;;2.70;99.90;;;;;;5060637;28;20238;-51
2021/12/09 04:24:20;;;;;;;34.83;22.73;;;2.60;99.90;;;;;;5048017;28;20228;-51
2021/12/09 04:26:49;;;;;;;35.53;21.90;;;2.70;99.90;;;;;;5049943;28;20467;-51
2021/12/09 04:29:15;;;;;;;41.47;22.92;;;2.60;99.90;;;;;;5068577;28;20196;-51
2021/12/09 04:31:42;;;;;;;41.77;23.33;;;2.70;99.90;;;;;;5072023;28;20181;-58
2021/12/09 04:34:07;;;;;;;37.10;22.88;;;2.70;99.90;;;;;;5065536;28;20982;-50
2021/12/09 04:36:35;;;;;;;38.50;22.53;;;2.60;99.90;;;;;;5071926;28;20236;-56
2021/12/09 04:39:02;;;;;;;37.75;21.05;;;2.60;99.90;;;;;;5068584;28;20192;-49
2021/12/09 04:41:28;;;;;;;33.72;21.23;;;2.60;99.90;;;;;;5071195;28;20177;-54
2021/12/09 04:43:53;;;;;;;34.77;20.40;;;2.60;99.90;;;;;;5080068;28;20191;-50
2021/12/09 04:46:19;;;;;;;34.17;21.40;;;2.60;99.90;;;;;;5065602;28;20239;-50
2021/12/09 04:48:45;;;;;;;32.73;20.00;;;2.70;99.90;;;;;;5057623;28;20519;-56
2021/12/09 04:51:11;;;;;;;31.63;20.38;;;2.70;99.90;;;;;;5060512;28;20182;-55
2021/12/09 04:53:37;;;;;;;29.63;18.85;;;2.70;99.90;;;;;;5066314;28;20170;-54
2021/12/09 04:56:03;;;;;;;29.23;19.13;;;2.70;99.90;;;;;;5066723;28;20186;-49
2021/12/09 04:58:29;;;;;;;29.83;18.53;;;2.80;99.90;;;;;;5060837;28;20196;-52
2021/12/09 05:00:58;;;;;;;31.47;19.60;;;2.80;99.90;;;;;;5047834;28;20435;-50
2021/12/09 05:03:24;;;;;;;28.60;18.52;;;2.80;99.90;;;;;;5062888;28;20470;-50
2021/12/09 05:05:52;;;;;;;30.40;19.73;;;2.80;99.90;;;;;;5065066;28;20574;-52
2021/12/09 05:08:21;;;;;;;28.05;18.33;;;2.80;99.90;;;;;;5065312;28;20208;-48
2021/12/09 05:10:59;;;;;;;27.65;17.15;;;2.70;99.90;;;;;;5066442;28;20181;-55
2021/12/09 05:13:27;;;;;;;27.83;17.40;;;2.80;99.90;;;;;;5061464;28;20239;-54
2021/12/09 05:15:54;;;;;;;28.75;17.92;;;2.90;99.90;;;;;;5047610;28;20189;-50
2021/12/09 05:18:21;;;;;;;28.88;17.30;;;2.90;99.90;;;;;;5068022;28;20197;-53
2021/12/09 05:20:47;;;;;;;22.00;16.30;;;2.90;99.90;;;;;;5048443;28;20190;-51
2021/12/09 05:23:14;;;;;;;29.83;18.58;;;2.90;99.90;;;;;;5065880;28;20631;-50
2021/12/09 05:25:40;;;;;;;33.17;17.48;;;2.90;99.90;;;;;;5069151;28;20186;-51
2021/12/09 05:28:07;;;;;;;28.63;17.77;;;2.90;99.90;;;;;;5065879;28;20213;-51
2021/12/09 05:32:07;;;;;;;26.45;16.27;;;2.90;99.90;;;;;;5070363;28;20208;-49
2021/12/09 05:33:25;;;;;;;24.33;16.80;;;2.90;99.90;;;;;;5066486;28;20222;-48
2021/12/09 05:35:52;;;;;;;25.15;17.00;;;2.90;99.90;;;;;;5062571;28;20174;-50
2021/12/09 05:38:17;;;;;;;28.60;18.15;;;2.80;99.90;;;;;;5044282;28;20181;-48
2021/12/09 05:40:43;;;;;;;26.17;18.13;;;2.90;99.90;;;;;;5063643;28;20194;-49
2021/12/09 05:43:08;;;;;;;24.97;16.50;;;2.90;99.90;;;;;;5066085;28;20267;-52
2021/12/09 05:45:34;;;;;;;29.00;18.13;;;2.90;99.90;;;;;;5069771;28;20272;-51
2021/12/09 05:48:00;;;;;;;30.27;17.47;;;2.90;99.90;;;;;;5087046;28;20254;-51
2021/12/09 05:50:25;;;;;;;25.30;18.20;;;2.80;99.90;;;;;;5076280;28;20524;-52
2021/12/09 05:52:51;;;;;;;33.00;18.80;;;2.90;99.90;;;;;;5076070;28;20177;-53
2021/12/09 05:55:16;;;;;;;24.97;16.47;;;2.80;99.90;;;;;;5072312;28;21036;-51
2021/12/09 05:57:42;;;;;;;26.03;17.30;;;2.90;99.90;;;;;;5088188;28;20173;-47
2021/12/09 06:00:08;;;;;;;29.30;18.77;;;2.90;99.90;;;;;;5086878;28;20190;-51
2021/12/09 06:02:35;;;;;;;29.80;18.15;;;2.90;99.90;;;;;;5075424;28;20185;-49
2021/12/09 06:05:03;;;;;;;28.50;19.08;;;2.90;99.90;;;;;;5087442;28;20967;-53
2021/12/09 06:07:28;;;;;;;26.38;18.25;;;3.00;99.90;;;;;;5089785;28;20243;-51
2021/12/09 06:09:55;;;;;;;29.80;17.83;;;3.00;99.90;;;;;;5074997;28;21156;-49
2021/12/09 06:12:21;;;;;;;28.38;18.35;;;3.00;99.90;;;;;;5089894;28;20169;-50
2021/12/09 06:14:47;;;;;;;26.00;17.88;;;2.90;99.90;;;;;;5091960;28;20177;-50
2021/12/09 06:17:13;;;;;;;36.87;19.57;;;2.90;99.90;;;;;;5088830;28;20210;-50
2021/12/09 06:19:38;;;;;;;28.17;18.67;;;2.90;99.90;;;;;;5053552;28;20641;-49
2021/12/09 06:22:04;;;;;;;29.27;18.47;;;2.90;99.90;;;;;;5075011;28;20181;-50
2021/12/09 06:24:30;;;;;;;28.40;20.57;;;3.00;99.90;;;;;;5063085;28;20318;-49
2021/12/09 06:26:55;;;;;;;33.80;19.37;;;3.10;99.90;;;;;;5071241;28;20240;-54
2021/12/09 06:29:21;;;;;;;30.50;19.17;;;3.10;99.90;;;;;;5072369;28;20177;-50
2021/12/09 06:31:46;;;;;;;27.20;19.03;;;3.00;99.90;;;;;;5083527;28;20247;-50
2021/12/09 06:34:12;;;;;;;25.40;18.80;;;3.10;99.90;;;;;;5069756;28;20508;-52
2021/12/09 06:36:40;;;;;;;28.67;19.65;;;3.00;99.90;;;;;;5091576;28;20202;-49
2021/12/09 06:39:05;;;;;;;32.70;20.27;;;3.00;99.90;;;;;;5070283;28;20185;-50
2021/12/09 06:41:31;;;;;;;29.50;19.30;;;2.90;99.90;;;;;;5076469;28;20191;-52
2021/12/09 06:43:57;;;;;;;27.73;17.27;;;2.90;99.90;;;;;;5091226;28;20188;-51
2021/12/09 06:46:22;;;;;;;27.60;18.30;;;2.90;99.90;;;;;;5089547;28;20415;-51
2021/12/09 06:48:48;;;;;;;26.90;19.43;;;3.00;99.90;;;;;;5078188;28;20263;-50
2021/12/09 06:51:13;;;;;;;25.70;18.40;;;3.00;99.90;;;;;;5069500;28;20181;-53
2021/12/09 06:53:39;;;;;;;27.27;18.47;;;2.90;99.90;;;;;;5069421;28;20992;-52
2021/12/09 06:56:05;;;;;;;27.87;18.83;;;3.00;99.90;;;;;;5070438;28;20192;-51
2021/12/09 06:58:31;;;;;;;28.27;19.67;;;2.90;99.90;;;;;;5069861;28;20587;-52
2021/12/09 07:00:57;;;;;;;31.30;18.77;;;3.00;99.90;;;;;;5070921;28;20273;-50
2021/12/09 07:03:23;;;;;;;27.92;18.10;;;2.90;99.90;;;;;;5079222;28;20424;-53
2021/12/09 07:05:50;;;;;;;33.65;21.15;;;2.90;99.90;;;;;;5081966;28;20195;-49
2021/12/09 07:08:17;;;;;;;28.40;18.80;;;2.90;99.90;;;;;;5090200;28;20209;-48
2021/12/09 07:10:42;;;;;;;34.20;22.50;;;2.90;99.90;;;;;;5076448;28;20221;-50
2021/12/09 07:13:09;;;;;;;26.70;18.20;;;2.90;99.90;;;;;;5081346;28;20209;-50
2021/12/09 07:15:35;;;;;;;32.53;19.13;;;2.90;99.90;;;;;;5067882;28;20511;-53
2021/12/09 07:18:02;;;;;;;27.63;18.40;;;2.80;99.90;;;;;;5078691;28;20621;-54
2021/12/09 07:20:28;;;;;;;27.00;18.23;;;2.90;99.90;;;;;;5082168;28;20241;-50
2021/12/09 07:22:54;;;;;;;28.30;19.00;;;2.90;99.90;;;;;;5077365;28;20233;-51
2021/12/09 07:25:22;;;;;;;28.58;19.30;;;2.80;99.90;;;;;;5060769;28;20180;-51
2021/12/09 07:27:48;;;;;;;29.85;17.90;;;2.90;99.90;;;;;;5073892;28;20284;-53
2021/12/09 07:30:15;;;;;;;27.90;18.73;;;2.80;99.90;;;;;;5077698;28;20579;-58
2021/12/09 07:32:41;;;;;;;27.13;18.55;;;2.90;99.90;;;;;;5078992;28;20185;-54
2021/12/09 07:35:08;;;;;;;32.30;19.40;;;2.90;99.90;;;;;;5090412;28;20173;-52
2021/12/09 07:37:36;;;;;;;33.47;20.30;;;3.00;99.90;;;;;;5085108;28;20533;-49
2021/12/09 07:40:04;;;;;;;31.60;20.98;;;2.90;99.90;;;;;;5070612;28;20257;-51
2021/12/09 07:42:29;;;;;;;31.00;19.70;;;3.00;99.90;;;;;;5069988;28;20189;-54
2021/12/09 07:44:55;;;;;;;31.17;20.57;;;3.00;99.90;;;;;;5069393;28;20227;-50
2021/12/09 07:47:20;;;;;;;32.80;20.93;;;3.00;99.90;;;;;;5070105;28;20280;-58
2021/12/09 07:49:46;;;;;;;35.33;20.50;;;2.90;99.90;;;;;;5069251;28;20205;-51
2021/12/09 07:52:11;;;;;;;31.63;19.80;;;2.90;99.90;;;;;;5069242;28;20291;-54
2021/12/09 07:54:37;;;;;;;33.30;21.40;;;2.90;99.90;;;;;;5069375;28;20239;-52
2021/12/09 07:57:03;;;;;;;29.97;20.73;;;2.80;99.90;;;;;;5058860;28;20357;-55
2021/12/09 07:59:28;;;;;;;31.43;20.63;;;2.90;99.90;;;;;;5055701;28;20193;-48
2021/12/09 08:01:54;;;;;;;33.40;21.47;;;2.80;99.90;;;;;;5068011;28;20570;-50
2021/12/09 08:04:20;;;;;;;30.90;21.03;;;2.80;99.90;;;;;;5078540;28;20181;-50
2021/12/09 08:06:46;;;;;;;34.10;21.50;;;2.80;99.90;;;;;;5081665;28;20556;-51
2021/12/09 08:09:11;;;;;;;33.17;21.35;;;2.80;99.90;;;;;;5087921;28;20185;-54
2021/12/09 08:11:38;;;;;;;34.20;22.10;;;2.80;99.90;;;;;;5088502;28;20699;-54
2021/12/09 08:14:07;;;;;;;34.67;20.60;;;2.80;99.90;;;;;;5088886;28;20181;-52
2021/12/09 08:16:37;;;;;;;32.22;21.90;;;2.70;99.90;;;;;;5085226;28;20625;-51
2021/12/09 08:19:11;;;;;;;34.33;21.05;;;2.70;99.90;;;;;;5080483;28;20307;-51
2021/12/09 08:21:38;;;;;;;34.88;20.52;;;2.70;99.90;;;;;;5067890;28;20188;-52
2021/12/09 08:24:05;;;;;;;37.28;23.08;;;2.60;99.90;;;;;;5069162;28;20217;-53
2021/12/09 08:26:32;;;;;;;33.90;22.02;;;2.60;99.90;;;;;;5067912;28;20185;-53
2021/12/09 08:28:57;;;;;;;38.13;22.95;;;2.60;99.90;;;;;;5073537;28;20238;-51
2021/12/09 08:31:23;;;;;;;36.27;23.60;;;2.60;99.90;;;;;;5088715;28;20727;-52
2021/12/09 08:33:49;;;;;;;38.57;23.70;;;2.60;99.90;;;;;;5076843;28;20452;-53
2021/12/09 08:36:15;;;;;;;35.50;22.53;;;2.50;99.90;;;;;;5078227;28;20463;-52
2021/12/09 08:38:40;;;;;;;36.67;22.50;;;2.50;99.90;;;;;;5087224;28;20195;-51
2021/12/09 08:41:08;;;;;;;34.60;22.80;;;2.50;99.90;;;;;;5084480;28;20197;-48
2021/12/09 08:43:33;;;;;;;35.58;22.48;;;2.50;99.90;;;;;;5077485;28;20173;-49
2021/12/09 08:45:59;;;;;;;39.30;22.67;;;2.50;99.90;;;;;;5086824;28;20192;-49
2021/12/09 08:48:27;;;;;;;37.30;22.90;;;2.60;99.90;;;;;;5088331;28;20704;-51
2021/12/09 08:50:53;;;;;;;39.58;23.40;;;2.50;99.90;;;;;;5060991;28;20176;-48
2021/12/09 08:53:23;;;;;;;35.75;22.30;;;2.50;99.90;;;;;;5078010;28;20181;-49
2021/12/09 08:55:48;;;;;;;38.22;23.13;;;2.60;99.90;;;;;;5085901;28;20191;-51
2021/12/09 08:58:15;;;;;;;42.17;25.27;;;2.60;99.90;;;;;;5070757;28;20811;-49
2021/12/09 09:00:44;;;;;;;38.55;23.40;;;2.70;99.90;;;;;;5066693;28;20885;-52
2021/12/09 09:03:09;;;;;;;36.05;22.85;;;2.70;99.90;;;;;;5072636;28;20628;-52
2021/12/09 09:05:36;;;;;;;42.70;24.23;;;2.80;99.90;;;;;;5074642;28;20193;-54
2021/12/09 09:08:03;;;;;;;43.22;26.85;;;2.80;99.90;;;;;;5070629;28;20197;-53
2021/12/09 09:10:31;;;;;;;38.10;22.98;;;2.80;99.90;;;;;;5068237;28;20162;-53
2021/12/09 09:12:57;;;;;;;34.90;22.60;;;2.80;99.90;;;;;;5067554;28;20181;-52
2021/12/09 09:15:26;;;;;;;39.50;23.57;;;2.80;99.90;;;;;;5068176;28;20238;-52
2021/12/09 09:17:52;;;;;;;37.03;23.30;;;2.80;99.90;;;;;;5067313;28;20221;-51
2021/12/09 09:20:23;;;;;;;35.90;23.45;;;2.80;99.90;;;;;;5067800;28;20200;-55
2021/12/09 09:22:49;;;;;;;35.75;22.55;;;2.80;99.90;;;;;;5068188;28;20225;-57
2021/12/09 09:25:20;;;;;;;40.00;25.43;;;2.80;99.90;;;;;;5049064;28;20805;-52
2021/12/09 09:27:47;;;;;;;40.45;23.02;;;2.80;99.90;;;;;;5063631;28;20217;-52
2021/12/09 09:30:17;;;;;;;37.97;24.00;;;2.90;99.90;;;;;;5067882;28;20525;-53
2021/12/09 09:32:47;;;;;;;38.42;23.88;;;2.90;99.90;;;;;;5068060;28;20181;-50
2021/12/09 09:35:13;;;;;;;36.10;23.10;;;2.80;99.90;;;;;;5071886;28;20681;-53
2021/12/09 09:37:39;;;;;;;39.03;23.80;;;2.90;99.90;;;;;;5069304;28;20193;-50
2021/12/09 09:40:11;;;;;;;38.40;23.60;;;2.90;99.90;;;;;;5070871;28;20268;-54
2021/12/09 09:45:08;;;;;;;43.03;25.33;;;2.80;99.90;;;;;;5070001;28;20192;-59
2021/12/09 09:47:34;;;;;;;33.75;23.40;;;2.80;99.90;;;;;;5053732;28;20217;-57
2021/12/09 09:50:02;;;;;;;37.72;23.55;;;2.90;99.90;;;;;;5071734;28;20174;-49
2021/12/09 09:52:27;;;;;;;37.38;22.83;;;2.90;99.90;;;;;;5071460;28;20186;-53
2021/12/09 09:54:55;;;;;;;36.70;23.17;;;3.00;99.90;;;;;;5070604;28;20189;-51
2021/12/09 09:57:22;;;;;;;36.55;22.92;;;3.10;99.90;;;;;;5071526;28;20177;-53
2021/12/09 09:59:48;;;;;;;39.42;23.58;;;3.10;99.90;;;;;;5071441;28;20247;-55
2021/12/09 10:02:14;;;;;;;35.77;24.00;;;3.20;99.90;;;;;;5061092;28;20223;-54
2021/12/09 10:04:46;;;;;;;35.85;22.60;;;3.10;99.90;;;;;;5077057;28;20184;-52
2021/12/09 10:07:14;;;;;;;34.55;22.13;;;3.10;99.90;;;;;;5049556;28;20210;-50
2021/12/09 10:09:40;;;;;;;36.78;23.98;;;3.10;99.90;;;;;;5091525;28;20184;-49
2021/12/09 10:12:07;;;;;;;37.85;23.77;;;3.10;99.90;;;;;;5054292;28;20193;-52
2021/12/09 10:14:34;;;;;;;38.30;22.02;;;3.10;99.90;;;;;;5078905;28;20208;-52
2021/12/09 10:17:15;;;;;;;38.63;23.35;;;3.10;99.90;;;;;;5086786;28;20193;-55
2021/12/09 10:19:53;;;;;;;36.20;22.67;;;3.20;99.90;;;;;;5082778;28;20185;-50
2021/12/09 10:22:22;;;;;;;38.72;23.40;;;3.20;99.90;;;;;;5075515;28;20189;-53
2021/12/09 10:24:50;;;;;;;40.65;24.40;;;3.20;99.90;;;;;;5076895;28;20190;-54
2021/12/09 10:27:27;;;;;;;39.10;24.30;;;3.20;99.90;;;;;;5085315;28;20221;-55
2021/12/09 10:30:17;;;;;;;37.00;24.05;;;3.10;99.90;;;;;;5080294;28;20169;-55
2021/12/09 10:32:44;;;;;;;34.92;22.02;;;3.10;99.90;;;;;;5072899;28;20208;-58
2021/12/09 10:35:15;;;;;;;38.30;23.65;;;3.10;99.90;;;;;;5050877;28;20190;-53
2021/12/09 10:37:41;;;;;;;37.47;23.20;;;3.20;99.90;;;;;;5050920;28;20316;-54
2021/12/09 10:40:30;;;;;;;35.33;22.35;;;3.30;99.90;;;;;;5050652;28;20210;-49
2021/12/09 10:43:01;;;;;;;38.88;23.40;;;3.40;99.90;;;;;;5050800;28;20590;-53
2021/12/09 10:45:37;;;;;;;36.40;23.05;;;3.40;99.90;;;;;;5059669;28;20193;-52
2021/12/09 10:53:34;;;;;;;39.63;24.95;;;3.50;99.90;;;;;;5069827;28;20169;-54
2021/12/09 10:56:10;;;;;;;33.58;22.58;;;3.50;99.90;;;;;;5070324;28;20150;-54
2021/12/09 10:58:45;;;;;;;34.45;22.15;;;3.60;99.90;;;;;;5070152;28;20169;-54
2021/12/09 11:01:18;;;;;;;34.25;22.42;;;3.60;99.90;;;;;;5065702;28;20185;-55
2021/12/09 11:03:53;;;;;;;34.95;22.63;;;3.70;99.90;;;;;;5067232;28;20193;-53
2021/12/09 11:06:38;;;;;;;35.63;23.75;;;3.80;99.90;;;;;;5063460;28;20242;-51
2021/12/09 11:09:11;;;;;;;36.75;21.70;;;3.90;99.90;;;;;;5069080;28;20277;-51
2021/12/09 11:11:45;;;;;;;35.92;22.08;;;3.90;99.90;;;;;;5069761;28;20181;-49
2021/12/09 11:14:21;;;;;;;35.55;24.60;;;4.00;99.90;;;;;;5071412;28;20176;-52
2021/12/09 11:17:06;;;;;;;35.20;23.27;;;3.90;99.90;;;;;;5080225;28;20562;-50
2021/12/09 11:19:39;;;;;;;34.38;23.15;;;3.90;99.90;;;;;;5084293;28;20177;-51
2021/12/09 11:22:08;;;;;;;35.28;21.63;;;4.00;99.90;;;;;;5072012;28;20198;-51
2021/12/09 11:24:39;;;;;;;35.25;23.17;;;4.00;99.90;;;;;;5068959;28;20229;-52
2021/12/09 11:27:07;;;;;;;35.42;21.63;;;4.00;99.90;;;;;;5082877;28;20193;-53
2021/12/09 11:29:39;;;;;;;28.92;20.42;;;4.00;99.90;;;;;;5064783;28;20930;-51
2021/12/09 11:32:22;;;;;;;34.50;21.70;;;4.00;99.90;;;;;;5088723;28;20602;-52
2021/12/09 11:35:22;;;;;;;34.88;22.67;;;3.90;99.90;;;;;;5076699;28;20177;-52
2021/12/09 11:38:00;;;;;;;32.22;22.20;;;3.90;99.90;;;;;;5085299;28;20205;-49
2021/12/09 11:40:49;;;;;;;33.63;21.75;;;3.60;99.90;;;;;;5077922;28;20196;-53
2021/12/09 11:43:22;;;;;;;34.38;22.50;;;3.60;99.90;;;;;;5070371;28;20188;-53
2021/12/09 11:45:49;;;;;;;34.28;22.58;;;3.60;99.90;;;;;;5080759;28;20188;-51
2021/12/09 11:48:16;;;;;;;34.00;22.40;;;3.60;99.90;;;;;;5089138;28;20197;-52
2021/12/09 11:50:46;;;;;;;36.00;24.73;;;3.60;99.90;;;;;;5087517;28;20204;-49
2021/12/09 11:53:14;;;;;;;34.40;22.70;;;3.60;99.90;;;;;;5067816;28;20196;-48
2021/12/09 11:55:45;;;;;;;33.83;22.65;;;3.60;99.90;;;;;;5066856;28;20714;-51
2021/12/09 11:58:27;;;;;;;34.97;22.35;;;3.60;99.90;;;;;;5079007;28;20189;-48
2021/12/09 12:07:11;;;;;;;36.80;23.00;;;3.50;99.90;;;;;;5074823;28;20289;-57
2021/12/09 12:12:35;;;;;;;34.88;22.67;;;3.60;99.90;;;;;;5068988;28;20192;-49
2021/12/09 12:18:29;;;;;;;37.40;22.35;;;3.60;99.90;;;;;;5069217;28;20192;-52
2021/12/09 12:25:07;;;;;;;34.60;23.83;;;3.60;99.90;;;;;;5081003;28;20231;-55
2021/12/09 12:27:13;;;;;;;36.25;23.17;;;3.70;99.90;;;;;;5048969;28;20698;-54
2021/12/09 12:30:12;;;;;;;33.33;22.48;;;3.70;99.90;;;;;;5068349;28;20174;-53
2021/12/09 12:33:02;;;;;;;34.78;21.48;;;3.70;99.90;;;;;;5037762;28;20224;-51
2021/12/09 12:40:58;;;;;;;41.33;25.17;;;3.80;99.90;;;;;;5068069;28;20177;-56
2021/12/09 12:43:36;;;;;;;36.80;24.38;;;3.70;99.90;;;;;;5067795;28;20728;-55
2021/12/09 12:46:25;;;;;;;38.00;23.08;;;3.60;99.90;;;;;;5067434;28;20235;-50
2021/12/09 12:49:10;;;;;;;36.20;23.20;;;3.60;99.90;;;;;;5059889;28;20331;-55
2021/12/09 12:51:51;;;;;;;34.08;23.02;;;3.70;99.90;;;;;;5066668;28;20637;-53
2021/12/09 12:55:06;;;;;;;40.55;24.80;;;3.70;99.90;;;;;;5066461;28;20208;-48
2021/12/09 12:57:41;;;;;;;38.17;24.33;;;3.60;99.90;;;;;;5064243;28;20327;-53
2021/12/09 13:00:10;;;;;;;39.15;24.13;;;3.60;99.90;;;;;;5067505;28;20208;-48
2021/12/09 13:05:48;;;;;;;38.00;24.67;;;3.60;99.90;;;;;;5066707;28;20196;-50
2021/12/09 13:16:19;;;;;;;37.55;24.42;;;3.70;99.90;;;;;;5071118;28;20174;-51
2021/12/09 13:19:13;;;;;;;40.13;24.60;;;3.70;99.90;;;;;;5071857;28;20185;-50
2021/12/09 13:21:51;;;;;;;38.25;23.77;;;3.70;99.90;;;;;;5070837;28;20186;-48
2021/12/09 13:24:37;;;;;;;36.00;23.30;;;3.80;99.90;;;;;;5071676;28;20221;-52